createdAt,value
2023-01-09T00:02:32.046Z,8.48
2023-01-09T00:05:33.796Z,8.38
2023-01-09T00:08:35.554Z,8.38
2023-01-09T00:11:37.425Z,8.39
2023-01-09T00:14:40.468Z,8.38
2023-01-09T00:17:42.246Z,8.39
2023-01-09T00:20:44.111Z,8.40
2023-01-09T00:23:46.133Z,8.40
2023-01-09T00:26:47.820Z,8.42
2023-01-09T00:29:51.938Z,8.49
2023-01-09T00:32:54.138Z,8.46
2023-01-09T00:35:55.887Z,8.47
2023-01-09T00:38:57.677Z,8.49
2023-01-09T00:41:59.575Z,8.54
2023-01-09T00:45:05.576Z,8.55
2023-01-09T00:48:09.920Z,8.59
2023-01-09T00:51:11.711Z,8.56
2023-01-09T00:54:16.550Z,8.55
2023-01-09T00:57:18.436Z,8.53
2023-01-09T01:00:21.655Z,8.58
2023-01-09T01:03:23.359Z,8.58
2023-01-09T01:06:43.477Z,8.56
2023-01-09T01:09:45.156Z,8.59
2023-01-09T01:12:47.845Z,8.60
2023-01-09T01:15:50.905Z,8.63
2023-01-09T01:18:52.728Z,8.64
2023-01-09T01:21:54.461Z,8.64
2023-01-09T01:24:56.169Z,8.66
2023-01-09T01:27:57.896Z,8.65
2023-01-09T01:31:01.381Z,8.64
2023-01-09T01:34:03.540Z,8.64
2023-01-09T01:37:05.548Z,8.64
2023-01-09T01:40:10.456Z,8.60
2023-01-09T01:43:12.668Z,8.61
2023-01-09T01:46:16.021Z,8.59
2023-01-09T01:49:20.359Z,8.60
2023-01-09T01:52:23.922Z,8.60
2023-01-09T01:55:25.916Z,8.63
2023-01-09T01:58:28.444Z,8.62
2023-01-09T02:01:33.788Z,8.64
2023-01-09T02:04:39.904Z,8.60
2023-01-09T02:07:41.714Z,8.58
2023-01-09T02:10:44.907Z,8.56
2023-01-09T02:13:47.721Z,8.54
2023-01-09T02:16:57.869Z,8.52
2023-01-09T02:20:44.767Z,8.44
2023-01-09T02:24:08.746Z,8.35
2023-01-09T02:27:33.626Z,8.32
2023-01-09T02:30:44.034Z,8.28
2023-01-09T02:33:54.936Z,8.26
2023-01-09T02:37:04.975Z,8.26
2023-01-09T02:40:16.758Z,8.28
2023-01-09T02:43:19.133Z,8.21
2023-01-09T02:46:22.966Z,8.17
2023-01-09T02:49:24.733Z,8.18
2023-01-09T02:52:37.800Z,8.16
2023-01-09T02:55:51.597Z,8.16
2023-01-09T02:59:10.609Z,8.13
2023-01-09T03:02:29.533Z,8.19
2023-01-09T03:05:39.425Z,8.20
2023-01-09T03:08:45.465Z,8.23
2023-01-09T03:11:51.675Z,8.25
2023-01-09T03:14:58.134Z,8.28
2023-01-09T03:18:04.293Z,8.28
2023-01-09T03:21:09.345Z,8.30
2023-01-09T03:24:10.878Z,8.34
2023-01-09T03:27:12.858Z,8.31
2023-01-09T03:30:15.325Z,8.32
2023-01-09T03:33:18.394Z,8.29
2023-01-09T03:36:21.704Z,8.27
2023-01-09T03:39:23.483Z,8.28
2023-01-09T03:42:25.479Z,8.28
2023-01-09T03:45:27.479Z,8.28
2023-01-09T03:48:30.849Z,8.34
2023-01-09T03:51:32.577Z,8.36
2023-01-09T03:54:34.271Z,8.31
2023-01-09T03:57:36.071Z,8.40
2023-01-09T04:00:39.372Z,8.42
2023-01-09T04:03:42.493Z,8.31
2023-01-09T04:06:44.260Z,8.28
2023-01-09T04:09:46.057Z,8.27
2023-01-09T04:12:47.711Z,8.22
2023-01-09T04:15:49.595Z,8.20
2023-01-09T04:18:52.664Z,8.20
2023-01-09T04:21:54.407Z,8.16
2023-01-09T04:24:56.047Z,8.22
2023-01-09T04:27:58.001Z,8.25
2023-01-09T04:30:59.941Z,8.29
2023-01-09T04:34:03.012Z,8.28
2023-01-09T04:37:04.810Z,8.27
2023-01-09T04:40:12.012Z,8.23
2023-01-09T04:43:13.705Z,8.29
2023-01-09T04:46:15.476Z,8.23
2023-01-09T04:49:18.755Z,8.26
2023-01-09T04:52:20.528Z,8.43
2023-01-09T04:55:22.540Z,8.28
2023-01-09T04:58:24.298Z,8.16
2023-01-09T05:01:26.311Z,8.28
2023-01-09T05:04:29.733Z,8.11
2023-01-09T05:07:31.460Z,8.12
2023-01-09T05:10:33.238Z,8.23
2023-01-09T05:13:34.884Z,8.17
2023-01-09T05:16:36.693Z,8.10
2023-01-09T05:19:39.821Z,8.01
2023-01-09T05:22:41.498Z,8.00
2023-01-09T05:25:43.325Z,7.89
2023-01-09T05:28:45.429Z,7.72
2023-01-09T05:31:47.302Z,7.70
2023-01-09T05:34:50.351Z,7.89
2023-01-09T05:37:52.137Z,7.97
2023-01-09T05:40:53.890Z,7.93
2023-01-09T05:43:55.605Z,7.82
2023-01-09T05:46:57.385Z,7.82
2023-01-09T05:50:00.438Z,7.82
2023-01-09T05:53:02.168Z,7.65
2023-01-09T05:56:03.973Z,7.55
2023-01-09T05:59:05.883Z,7.52
2023-01-09T06:02:07.986Z,7.59
2023-01-09T06:05:11.791Z,7.42
2023-01-09T06:08:13.613Z,7.49
2023-01-09T06:11:15.380Z,7.54
2023-01-09T06:14:17.207Z,7.49
2023-01-09T06:17:19.027Z,7.41
2023-01-09T06:20:22.442Z,7.44
2023-01-09T06:23:24.445Z,7.49
2023-01-09T06:26:26.316Z,7.58
2023-01-09T06:29:28.069Z,7.64
2023-01-09T06:32:29.783Z,7.56
2023-01-09T06:35:32.899Z,7.44
2023-01-09T06:38:34.761Z,7.42
2023-01-09T06:41:37.591Z,7.39
2023-01-09T06:44:39.489Z,7.35
2023-01-09T06:47:41.567Z,7.30
2023-01-09T06:50:45.839Z,7.37
2023-01-09T06:53:47.565Z,7.33
2023-01-09T06:56:49.392Z,7.29
2023-01-09T06:59:51.153Z,7.20
2023-01-09T07:02:52.981Z,7.12
2023-01-09T07:05:56.596Z,7.05
2023-01-09T07:08:58.320Z,6.99
2023-01-09T07:12:00.098Z,6.98
2023-01-09T07:15:02.045Z,6.98
2023-01-09T07:18:04.333Z,6.97
2023-01-09T07:21:07.372Z,6.95
2023-01-09T07:24:09.053Z,6.98
2023-01-09T07:27:11.929Z,6.98
2023-01-09T07:30:14.663Z,6.98
2023-01-09T07:33:16.864Z,6.99
2023-01-09T07:36:20.032Z,6.97
2023-01-09T07:39:21.887Z,6.96
2023-01-09T07:42:23.546Z,6.97
2023-01-09T07:45:25.314Z,6.98
2023-01-09T07:48:27.401Z,6.97
2023-01-09T07:51:30.549Z,7.00
2023-01-09T07:54:32.393Z,7.05
2023-01-09T07:57:34.150Z,7.09
2023-01-09T08:00:36.182Z,7.10
2023-01-09T08:03:38.788Z,7.17
2023-01-09T08:06:41.876Z,7.16
2023-01-09T08:09:43.521Z,7.16
2023-01-09T08:12:45.499Z,7.19
2023-01-09T08:15:47.331Z,7.28
2023-01-09T08:18:49.157Z,7.36
2023-01-09T08:21:52.292Z,7.38
2023-01-09T08:24:53.941Z,7.43
2023-01-09T08:27:55.693Z,7.41
2023-01-09T08:30:57.382Z,7.47
2023-01-09T08:33:59.145Z,7.38
2023-01-09T08:37:02.238Z,7.38
2023-01-09T08:40:04.413Z,7.37
2023-01-09T08:43:24.883Z,7.39
2023-01-09T08:46:45.239Z,7.28
2023-01-09T08:49:46.977Z,7.21
2023-01-09T08:52:50.060Z,7.12
2023-01-09T08:55:51.800Z,7.10
2023-01-09T08:58:53.508Z,7.12
2023-01-09T09:01:55.282Z,7.09
2023-01-09T09:04:57.890Z,7.11
2023-01-09T09:08:01.053Z,7.07
2023-01-09T09:11:03.216Z,7.16
2023-01-09T09:14:25.729Z,7.26
2023-01-09T09:17:28.918Z,7.39
2023-01-09T09:20:33.148Z,7.45
2023-01-09T09:23:36.279Z,7.44
2023-01-09T09:26:38.045Z,7.42
2023-01-09T09:29:39.700Z,7.47
2023-01-09T09:32:41.523Z,7.47
2023-01-09T09:35:43.583Z,7.51
2023-01-09T09:38:46.674Z,7.52
2023-01-09T09:42:26.778Z,7.53
2023-01-09T09:45:40.584Z,7.50
2023-01-09T09:48:50.272Z,7.47
2023-01-09T09:52:08.463Z,7.48
2023-01-09T09:55:18.769Z,7.46
2023-01-09T09:58:26.019Z,7.43
2023-01-09T10:01:36.468Z,7.44
2023-01-09T10:04:42.941Z,7.39
2023-01-09T10:07:49.714Z,7.42
2023-01-09T10:10:55.316Z,7.50
2023-01-09T10:14:08.504Z,7.56
2023-01-09T10:17:34.123Z,7.62
2023-01-09T10:20:48.847Z,7.58
2023-01-09T10:24:12.029Z,7.55
2023-01-09T10:27:22.090Z,7.59
2023-01-09T10:30:35.119Z,7.59
2023-01-09T10:33:54.135Z,7.61
2023-01-09T10:37:10.104Z,7.62
2023-01-09T10:40:19.576Z,7.53
2023-01-09T10:43:32.208Z,7.53
2023-01-09T10:46:38.628Z,7.49
2023-01-09T10:49:41.065Z,7.48
2023-01-09T10:52:42.995Z,7.44
2023-01-09T10:55:47.705Z,7.29
2023-01-09T10:58:52.606Z,7.23
2023-01-09T11:01:54.770Z,7.19
2023-01-09T11:04:56.595Z,7.25
2023-01-09T11:08:04.589Z,7.24
2023-01-09T11:11:06.905Z,7.16
2023-01-09T11:14:17.528Z,7.18
2023-01-09T11:17:21.319Z,7.12
2023-01-09T11:20:28.517Z,7.16
2023-01-09T11:23:32.344Z,7.09
2023-01-09T11:26:35.113Z,7.08
2023-01-09T11:29:38.927Z,7.14
2023-01-09T11:32:41.087Z,7.22
2023-01-09T11:35:57.429Z,7.23
2023-01-09T11:39:01.015Z,7.18
2023-01-09T11:42:05.438Z,7.18
2023-01-09T11:45:15.443Z,7.18
2023-01-09T11:48:25.271Z,7.18
2023-01-09T11:51:29.084Z,7.22
2023-01-09T11:54:34.595Z,7.24
2023-01-09T11:57:36.248Z,7.33
2023-01-09T12:00:50.697Z,7.41
2023-01-09T12:04:11.060Z,7.41
2023-01-09T12:07:38.980Z,7.41
2023-01-09T12:11:01.305Z,7.33
2023-01-09T12:14:17.836Z,7.34
2023-01-09T12:17:41.003Z,7.36
2023-01-09T12:20:56.461Z,7.39
2023-01-09T12:24:11.022Z,7.39
2023-01-09T12:27:24.928Z,7.36
2023-01-09T12:30:42.535Z,7.47
2023-01-09T12:33:59.177Z,7.38
2023-01-09T12:37:13.229Z,7.44
2023-01-09T12:40:40.444Z,7.40
2023-01-09T12:43:52.146Z,7.26
2023-01-09T12:47:06.244Z,7.24
2023-01-09T12:50:26.026Z,7.32
2023-01-09T12:53:31.673Z,7.28
2023-01-09T12:56:37.270Z,7.26
2023-01-09T12:59:42.856Z,7.21
2023-01-09T13:02:50.433Z,7.17
2023-01-09T13:05:57.532Z,7.15
2023-01-09T13:09:13.005Z,7.08
2023-01-09T13:12:18.205Z,7.11
2023-01-09T13:15:29.088Z,7.24
2023-01-09T13:18:42.293Z,7.26
2023-01-09T13:21:46.092Z,7.29
2023-01-09T13:25:19.253Z,7.36
2023-01-09T13:28:24.998Z,7.35
2023-01-09T13:32:06.040Z,7.34
2023-01-09T13:35:13.410Z,7.29
2023-01-09T13:38:19.629Z,7.33
2023-01-09T13:41:40.639Z,7.30
2023-01-09T13:44:42.741Z,7.28
2023-01-09T13:47:45.030Z,7.25
2023-01-09T13:50:48.202Z,7.26
2023-01-09T13:53:51.293Z,7.23
2023-01-09T13:57:26.572Z,7.36
2023-01-09T14:00:53.709Z,7.43
2023-01-09T14:04:28.703Z,7.46
2023-01-09T14:07:30.928Z,7.51
2023-01-09T14:10:38.024Z,7.56
2023-01-09T14:13:43.631Z,7.62
2023-01-09T14:16:45.404Z,7.62
2023-01-09T14:19:55.609Z,7.65
2023-01-09T14:23:18.070Z,7.68
2023-01-09T14:26:43.677Z,7.68
2023-01-09T14:29:47.550Z,7.66
2023-01-09T14:32:56.693Z,7.68
2023-01-09T14:36:12.452Z,7.69
2023-01-09T14:39:15.214Z,7.67
2023-01-09T14:42:22.696Z,7.60
2023-01-09T14:45:27.171Z,7.56
2023-01-09T14:48:29.795Z,7.55
2023-01-09T14:51:37.036Z,7.53
2023-01-09T14:54:42.023Z,7.54
2023-01-09T14:57:45.077Z,7.50
2023-01-09T15:00:50.800Z,7.57
2023-01-09T15:03:58.733Z,7.62
2023-01-09T15:07:00.956Z,7.63
2023-01-09T15:10:03.994Z,7.64
2023-01-09T15:13:13.322Z,7.63
2023-01-09T15:16:19.030Z,7.63
2023-01-09T15:19:20.842Z,7.60
2023-01-09T15:22:27.501Z,7.66
2023-01-09T15:25:38.959Z,7.65
2023-01-09T15:28:46.231Z,7.60
2023-01-09T15:31:52.963Z,7.63
2023-01-09T15:34:55.253Z,7.55
2023-01-09T15:37:58.177Z,7.44
2023-01-09T15:41:04.507Z,7.40
2023-01-09T15:44:14.378Z,7.26
2023-01-09T15:47:27.865Z,7.12
2023-01-09T15:50:29.709Z,7.17
2023-01-09T15:53:31.965Z,7.23
2023-01-09T15:56:35.282Z,7.25
2023-01-09T15:59:38.477Z,7.20
2023-01-09T16:03:03.844Z,7.17
2023-01-09T16:06:13.453Z,7.08
2023-01-09T16:09:16.732Z,7.06
2023-01-09T16:12:21.760Z,7.01
2023-01-09T16:15:25.610Z,6.99
2023-01-09T16:18:33.034Z,7.17
2023-01-09T16:21:36.626Z,7.27
2023-01-09T16:24:41.324Z,7.30
2023-01-09T16:27:42.982Z,7.26
2023-01-09T16:30:56.986Z,7.23
2023-01-09T16:34:04.426Z,7.29
2023-01-09T16:37:06.280Z,7.25
2023-01-09T16:40:31.705Z,7.18
2023-01-09T16:43:33.299Z,7.22
2023-01-09T16:46:38.433Z,7.18
2023-01-09T16:49:40.081Z,7.23
2023-01-09T16:57:03.500Z,7.24
2023-01-09T17:00:06.271Z,7.21
2023-01-09T17:03:12.440Z,7.12
2023-01-09T17:10:36.329Z,7.14
2023-01-09T17:13:38.131Z,7.16
2023-01-09T17:16:43.255Z,7.19
2023-01-09T17:19:46.746Z,7.19
2023-01-09T17:22:48.373Z,7.20
2023-01-09T17:26:11.989Z,7.09
2023-01-09T17:29:13.656Z,7.03
2023-01-09T17:32:16.750Z,7.01
2023-01-09T17:35:19.845Z,6.93
2023-01-09T17:38:21.536Z,6.78
2023-01-09T17:41:24.416Z,6.64
2023-01-09T17:44:26.397Z,6.61
2023-01-09T17:47:28.600Z,6.57
2023-01-09T17:50:34.580Z,6.51
2023-01-09T17:53:42.111Z,6.48
2023-01-09T17:56:46.271Z,6.40
2023-01-09T17:59:47.918Z,6.31
2023-01-09T18:02:49.702Z,6.27
2023-01-09T18:05:53.098Z,6.28
2023-01-09T18:08:57.350Z,6.29
2023-01-09T18:11:59.658Z,6.17
2023-01-09T18:15:02.458Z,6.12
2023-01-09T18:18:04.090Z,6.15
2023-01-09T18:21:09.468Z,6.13
2023-01-09T18:24:11.242Z,6.10
2023-01-09T18:27:12.868Z,6.16
2023-01-09T18:30:14.781Z,6.11
2023-01-09T18:33:17.466Z,6.03
2023-01-09T18:36:21.888Z,5.99
2023-01-09T18:39:23.526Z,5.98
2023-01-09T18:42:25.201Z,5.96
2023-01-09T18:45:26.879Z,5.93
2023-01-09T18:48:28.509Z,5.91
2023-01-09T18:51:33.658Z,5.92
2023-01-09T18:54:35.118Z,5.88
2023-01-09T18:57:37.500Z,5.72
2023-01-09T19:00:41.189Z,5.90
2023-01-09T19:03:42.949Z,6.01
2023-01-09T19:06:45.881Z,5.91
2023-01-09T19:09:47.629Z,5.86
2023-01-09T19:12:49.256Z,5.76
2023-01-09T19:15:53.958Z,5.71
2023-01-09T19:18:55.596Z,5.78
2023-01-09T19:21:58.468Z,5.84
2023-01-09T19:25:00.199Z,5.84
2023-01-09T19:28:02.065Z,5.83
2023-01-09T19:31:03.823Z,5.77
2023-01-09T19:34:05.384Z,5.79
2023-01-09T19:37:09.566Z,5.79
2023-01-09T19:40:12.123Z,5.78
2023-01-09T19:43:25.504Z,5.73
2023-01-09T19:46:28.410Z,5.75
2023-01-09T19:49:30.105Z,5.77
2023-01-09T19:52:33.163Z,5.75
2023-01-09T19:55:35.984Z,5.77
2023-01-09T19:58:37.641Z,5.84
2023-01-09T20:01:41.534Z,5.83
2023-01-09T20:04:43.217Z,5.83
2023-01-09T20:07:46.152Z,5.82
2023-01-09T20:10:47.736Z,5.88
2023-01-09T20:13:49.428Z,5.91
2023-01-09T20:16:53.849Z,5.90
2023-01-09T20:19:55.487Z,5.86
2023-01-09T20:22:58.391Z,5.96
2023-01-09T20:26:00.456Z,5.97
2023-01-09T20:29:02.747Z,6.00
2023-01-09T20:32:06.077Z,5.98
2023-01-09T20:35:08.267Z,6.00
2023-01-09T20:38:11.367Z,6.03
2023-01-09T20:41:23.884Z,5.98
2023-01-09T20:44:25.490Z,6.02
2023-01-09T20:47:28.891Z,6.04
2023-01-09T20:50:31.290Z,6.03
2023-01-09T20:53:34.182Z,6.02
2023-01-09T20:56:36.750Z,6.05
2023-01-09T20:59:38.447Z,6.01
2023-01-09T21:02:40.097Z,6.13
2023-01-09T21:05:41.781Z,6.12
2023-01-09T21:08:46.809Z,6.10
2023-01-09T21:11:48.462Z,6.19
2023-01-09T21:14:50.068Z,6.20
2023-01-09T21:17:51.769Z,6.21
2023-01-09T21:20:53.449Z,6.31
2023-01-09T21:23:58.852Z,6.32
2023-01-09T21:27:00.450Z,6.35
2023-01-09T21:30:02.283Z,6.30
2023-01-09T21:33:04.003Z,6.41
2023-01-09T21:36:06.801Z,6.33
2023-01-09T21:39:09.761Z,6.25
2023-01-09T21:42:30.186Z,6.18
2023-01-09T21:45:50.429Z,6.25
2023-01-09T21:48:52.142Z,6.29
2023-01-09T21:51:54.936Z,6.27
2023-01-09T21:54:57.892Z,6.13
2023-01-09T21:58:03.416Z,6.15
2023-01-09T22:01:05.234Z,6.13
2023-01-09T22:04:06.944Z,6.05
2023-01-09T22:07:09.948Z,6.06
2023-01-09T22:10:13.099Z,6.03
2023-01-09T22:13:17.553Z,6.02
2023-01-09T22:16:19.346Z,6.03
2023-01-09T22:19:21.024Z,6.02
2023-01-09T22:22:22.772Z,5.96
2023-01-09T22:25:26.381Z,6.00
2023-01-09T22:28:28.037Z,5.98
2023-01-09T22:31:30.073Z,5.99
2023-01-09T22:34:32.005Z,6.02
2023-01-09T22:37:33.964Z,6.05
2023-01-09T22:40:38.591Z,6.00
2023-01-09T22:43:40.135Z,6.07
2023-01-09T22:46:42.044Z,6.06
2023-01-09T22:49:52.819Z,6.08
2023-01-09T22:52:54.821Z,6.10
2023-01-09T22:55:59.364Z,6.08
2023-01-09T22:59:01.147Z,6.06
2023-01-09T23:02:02.805Z,6.13
2023-01-09T23:05:05.119Z,6.20
2023-01-09T23:08:06.730Z,6.18
2023-01-09T23:11:12.147Z,6.18
2023-01-09T23:14:13.815Z,6.18
2023-01-09T23:17:15.551Z,6.20
2023-01-09T23:20:17.268Z,6.21
2023-01-09T23:23:20.801Z,6.18
2023-01-09T23:26:23.792Z,6.18
2023-01-09T23:29:26.175Z,6.20
2023-01-09T23:32:27.728Z,6.19
2023-01-09T23:35:29.292Z,6.17
2023-01-09T23:38:30.937Z,6.17
2023-01-09T23:41:52.374Z,6.19
2023-01-09T23:44:53.920Z,6.18
2023-01-09T23:47:55.609Z,6.19
2023-01-09T23:50:57.189Z,6.16
2023-01-09T23:53:58.970Z,6.17
2023-01-09T23:57:02.091Z,6.18
